sensor_id;sensor_type;location;lat;lon;timestamp;pressure;altitude;pressure_sealevel;temperature;humidity
48555;BME280;34336;48.270;16.716;2023-03-01T00:00:04;109325.25;;;18.16;78.42
48555;BME280;34336;48.270;16.716;2023-03-01T00:02:36;109325.25;;;18.16;78.58
48555;BME280;34336;48.270;16.716;2023-03-01T00:05:03;109325.25;;;18.16;78.58
48555;BME280;34336;48.270;16.716;2023-03-01T00:07:30;109325.25;;;18.16;78.00
48555;BME280;34336;48.270;16.716;2023-03-01T00:09:57;109325.25;;;18.16;78.13
48555;BME280;34336;48.270;16.716;2023-03-01T00:12:23;109325.25;;;18.16;78.69
48555;BME280;34336;48.270;16.716;2023-03-01T00:14:50;109325.25;;;18.16;78.76
48555;BME280;34336;48.270;16.716;2023-03-01T00:17:16;109325.25;;;18.16;79.06
48555;BME280;34336;48.270;16.716;2023-03-01T00:19:43;109325.25;;;18.16;78.98
48555;BME280;34336;48.270;16.716;2023-03-01T00:22:09;109325.25;;;18.16;78.88
48555;BME280;34336;48.270;16.716;2023-03-01T00:24:36;109325.25;;;18.16;78.93
48555;BME280;34336;48.270;16.716;2023-03-01T00:27:02;109325.25;;;18.16;78.79
48555;BME280;34336;48.270;16.716;2023-03-01T00:29:29;109325.25;;;18.16;78.70
48555;BME280;34336;48.270;16.716;2023-03-01T00:31:55;109325.25;;;18.16;78.49
48555;BME280;34336;48.270;16.716;2023-03-01T00:34:22;109325.25;;;18.16;78.72
48555;BME280;34336;48.270;16.716;2023-03-01T00:36:49;109325.25;;;18.16;78.51
48555;BME280;34336;48.270;16.716;2023-03-01T00:39:15;109325.25;;;18.16;78.23
48555;BME280;34336;48.270;16.716;2023-03-01T00:41:42;109325.25;;;18.16;78.10
48555;BME280;34336;48.270;16.716;2023-03-01T00:44:09;109325.25;;;18.16;78.44
48555;BME280;34336;48.270;16.716;2023-03-01T00:46:36;109325.25;;;18.16;78.72
48555;BME280;34336;48.270;16.716;2023-03-01T00:49:03;109325.25;;;18.16;78.67
48555;BME280;34336;48.270;16.716;2023-03-01T00:51:31;109325.25;;;18.16;78.83
48555;BME280;34336;48.270;16.716;2023-03-01T00:53:59;109325.25;;;18.16;78.55
48555;BME280;34336;48.270;16.716;2023-03-01T00:56:26;109325.25;;;18.16;78.38
48555;BME280;34336;48.270;16.716;2023-03-01T00:58:53;109325.25;;;18.16;78.38
48555;BME280;34336;48.270;16.716;2023-03-01T01:01:20;109325.25;;;18.16;77.88
48555;BME280;34336;48.270;16.716;2023-03-01T01:03:52;109325.25;;;18.16;77.15
48555;BME280;34336;48.270;16.716;2023-03-01T01:06:21;109325.25;;;18.16;77.45
48555;BME280;34336;48.270;16.716;2023-03-01T01:08:48;109325.25;;;18.16;77.61
48555;BME280;34336;48.270;16.716;2023-03-01T01:11:14;109325.25;;;18.16;77.64
48555;BME280;34336;48.270;16.716;2023-03-01T01:13:41;109325.25;;;18.16;77.33
48555;BME280;34336;48.270;16.716;2023-03-01T01:16:07;109325.25;;;18.16;77.06
48555;BME280;34336;48.270;16.716;2023-03-01T01:18:34;109325.25;;;18.16;77.22
48555;BME280;34336;48.270;16.716;2023-03-01T01:21:09;109325.25;;;18.16;77.11
48555;BME280;34336;48.270;16.716;2023-03-01T01:23:36;109325.25;;;18.16;76.45
48555;BME280;34336;48.270;16.716;2023-03-01T01:26:14;109325.25;;;18.16;76.37
48555;BME280;34336;48.270;16.716;2023-03-01T01:28:40;109325.25;;;18.16;76.28
48555;BME280;34336;48.270;16.716;2023-03-01T01:31:07;109325.25;;;18.16;76.07
48555;BME280;34336;48.270;16.716;2023-03-01T01:33:33;109325.25;;;18.16;76.25
48555;BME280;34336;48.270;16.716;2023-03-01T01:36:00;109325.25;;;18.16;76.44
48555;BME280;34336;48.270;16.716;2023-03-01T01:38:27;109325.25;;;18.16;76.63
48555;BME280;34336;48.270;16.716;2023-03-01T01:40:53;109325.25;;;18.16;76.47
48555;BME280;34336;48.270;16.716;2023-03-01T01:43:24;109325.25;;;18.16;76.02
48555;BME280;34336;48.270;16.716;2023-03-01T01:45:55;109325.25;;;18.16;76.10
48555;BME280;34336;48.270;16.716;2023-03-01T01:48:24;109325.25;;;18.16;76.66
48555;BME280;34336;48.270;16.716;2023-03-01T01:50:55;109325.25;;;18.16;77.29
48555;BME280;34336;48.270;16.716;2023-03-01T01:53:23;109325.25;;;18.16;77.70
48555;BME280;34336;48.270;16.716;2023-03-01T01:55:52;109325.25;;;18.16;77.95
48555;BME280;34336;48.270;16.716;2023-03-01T01:58:19;109325.25;;;18.16;78.32
48555;BME280;34336;48.270;16.716;2023-03-01T02:00:47;109325.25;;;18.16;78.69
48555;BME280;34336;48.270;16.716;2023-03-01T02:03:15;109325.25;;;18.16;79.27
48555;BME280;34336;48.270;16.716;2023-03-01T02:05:57;109325.25;;;18.16;79.35
48555;BME280;34336;48.270;16.716;2023-03-01T02:08:26;109325.25;;;18.16;79.45
48555;BME280;34336;48.270;16.716;2023-03-01T02:10:54;109325.25;;;18.16;78.74
48555;BME280;34336;48.270;16.716;2023-03-01T02:13:22;109325.25;;;18.16;78.24
48555;BME280;34336;48.270;16.716;2023-03-01T02:15:49;109325.25;;;18.16;77.75
48555;BME280;34336;48.270;16.716;2023-03-01T02:18:17;109325.25;;;18.16;78.10
48555;BME280;34336;48.270;16.716;2023-03-01T02:23:12;109325.25;;;18.16;76.80
48555;BME280;34336;48.270;16.716;2023-03-01T02:25:44;109325.25;;;18.16;76.13
48555;BME280;34336;48.270;16.716;2023-03-01T02:30:39;109325.25;;;18.16;75.44
48555;BME280;34336;48.270;16.716;2023-03-01T02:33:26;109325.25;;;18.16;75.41
48555;BME280;34336;48.270;16.716;2023-03-01T02:35:54;109325.25;;;18.16;75.26
48555;BME280;34336;48.270;16.716;2023-03-01T02:38:21;109325.25;;;18.16;75.23
48555;BME280;34336;48.270;16.716;2023-03-01T02:40:50;109325.25;;;18.16;75.26
48555;BME280;34336;48.270;16.716;2023-03-01T02:43:17;109325.25;;;18.16;75.55
48555;BME280;34336;48.270;16.716;2023-03-01T02:45:48;109325.25;;;18.16;75.85
48555;BME280;34336;48.270;16.716;2023-03-01T02:48:15;109325.25;;;18.16;75.95
48555;BME280;34336;48.270;16.716;2023-03-01T02:50:52;109325.25;;;18.16;75.58
48555;BME280;34336;48.270;16.716;2023-03-01T02:53:27;109325.25;;;18.16;76.32
48555;BME280;34336;48.270;16.716;2023-03-01T02:55:54;109325.25;;;18.16;75.88
48555;BME280;34336;48.270;16.716;2023-03-01T02:58:21;109325.25;;;18.16;76.04
48555;BME280;34336;48.270;16.716;2023-03-01T03:00:48;109325.25;;;18.16;75.91
48555;BME280;34336;48.270;16.716;2023-03-01T03:03:16;109325.25;;;18.16;75.34
48555;BME280;34336;48.270;16.716;2023-03-01T03:05:45;109325.25;;;18.16;75.21
48555;BME280;34336;48.270;16.716;2023-03-01T03:08:12;109325.25;;;18.16;75.09
48555;BME280;34336;48.270;16.716;2023-03-01T03:10:39;109325.25;;;18.16;75.43
48555;BME280;34336;48.270;16.716;2023-03-01T03:13:07;109325.25;;;18.16;75.17
48555;BME280;34336;48.270;16.716;2023-03-01T03:15:36;109325.25;;;18.16;74.80
48555;BME280;34336;48.270;16.716;2023-03-01T03:18:03;109325.25;;;18.16;75.32
48555;BME280;34336;48.270;16.716;2023-03-01T03:20:30;109325.25;;;18.16;74.92
48555;BME280;34336;48.270;16.716;2023-03-01T03:22:58;109325.25;;;18.16;75.24
48555;BME280;34336;48.270;16.716;2023-03-01T03:25:25;109325.25;;;18.16;74.86
48555;BME280;34336;48.270;16.716;2023-03-01T03:27:52;109325.25;;;18.16;74.82
48555;BME280;34336;48.270;16.716;2023-03-01T03:30:26;109325.25;;;18.16;74.70
48555;BME280;34336;48.270;16.716;2023-03-01T03:32:53;109325.25;;;18.16;75.52
48555;BME280;34336;48.270;16.716;2023-03-01T03:35:21;109325.25;;;18.16;75.68
48555;BME280;34336;48.270;16.716;2023-03-01T03:37:48;109325.25;;;18.16;75.92
48555;BME280;34336;48.270;16.716;2023-03-01T03:40:36;109325.25;;;18.16;75.52
48555;BME280;34336;48.270;16.716;2023-03-01T03:43:07;109325.25;;;18.16;76.21
48555;BME280;34336;48.270;16.716;2023-03-01T03:45:33;109325.25;;;18.16;76.39
48555;BME280;34336;48.270;16.716;2023-03-01T03:48:01;109325.25;;;18.16;76.38
48555;BME280;34336;48.270;16.716;2023-03-01T03:50:29;109325.25;;;18.16;77.03
48555;BME280;34336;48.270;16.716;2023-03-01T03:52:55;109325.25;;;18.16;76.87
48555;BME280;34336;48.270;16.716;2023-03-01T03:55:22;109325.25;;;18.16;76.67
48555;BME280;34336;48.270;16.716;2023-03-01T03:57:48;109325.25;;;18.16;76.93
48555;BME280;34336;48.270;16.716;2023-03-01T04:00:18;109325.25;;;18.16;76.79
48555;BME280;34336;48.270;16.716;2023-03-01T04:02:46;109325.25;;;18.16;76.47
48555;BME280;34336;48.270;16.716;2023-03-01T04:05:13;109325.25;;;18.16;76.59
48555;BME280;34336;48.270;16.716;2023-03-01T04:07:40;109325.25;;;18.16;76.69
48555;BME280;34336;48.270;16.716;2023-03-01T04:10:08;109325.25;;;18.16;76.83
48555;BME280;34336;48.270;16.716;2023-03-01T04:12:36;109325.25;;;18.16;77.05
48555;BME280;34336;48.270;16.716;2023-03-01T04:15:03;109325.25;;;18.16;77.31
48555;BME280;34336;48.270;16.716;2023-03-01T04:17:40;109325.25;;;18.16;77.29
48555;BME280;34336;48.270;16.716;2023-03-01T04:20:11;109325.25;;;18.16;77.66
48555;BME280;34336;48.270;16.716;2023-03-01T04:22:38;109325.25;;;18.16;78.24
48555;BME280;34336;48.270;16.716;2023-03-01T04:25:04;109325.25;;;18.16;78.20
48555;BME280;34336;48.270;16.716;2023-03-01T04:27:33;109325.25;;;18.16;78.67
48555;BME280;34336;48.270;16.716;2023-03-01T04:30:00;109325.25;;;18.16;79.23
48555;BME280;34336;48.270;16.716;2023-03-01T04:32:26;109325.25;;;18.16;78.59
48555;BME280;34336;48.270;16.716;2023-03-01T04:34:53;109325.25;;;18.16;78.97
48555;BME280;34336;48.270;16.716;2023-03-01T04:37:20;109325.25;;;18.16;79.17
48555;BME280;34336;48.270;16.716;2023-03-01T04:39:46;109325.25;;;18.16;79.06
48555;BME280;34336;48.270;16.716;2023-03-01T04:42:16;109325.25;;;18.16;79.04
48555;BME280;34336;48.270;16.716;2023-03-01T04:44:43;109325.25;;;18.16;79.21
48555;BME280;34336;48.270;16.716;2023-03-01T04:47:10;109325.25;;;18.16;78.72
48555;BME280;34336;48.270;16.716;2023-03-01T04:49:37;109325.25;;;18.16;78.23
48555;BME280;34336;48.270;16.716;2023-03-01T04:52:03;109325.25;;;18.16;78.36
48555;BME280;34336;48.270;16.716;2023-03-01T04:54:31;109325.25;;;18.16;77.40
48555;BME280;34336;48.270;16.716;2023-03-01T04:56:58;109325.25;;;18.16;77.16
48555;BME280;34336;48.270;16.716;2023-03-01T04:59:24;109325.25;;;18.16;77.04
48555;BME280;34336;48.270;16.716;2023-03-01T05:01:51;109325.25;;;18.16;77.10
48555;BME280;34336;48.270;16.716;2023-03-01T05:04:18;109325.25;;;18.16;77.56
48555;BME280;34336;48.270;16.716;2023-03-01T05:06:45;109325.25;;;18.16;77.24
48555;BME280;34336;48.270;16.716;2023-03-01T05:09:11;109325.25;;;18.16;77.27
48555;BME280;34336;48.270;16.716;2023-03-01T05:11:38;109325.25;;;18.16;77.04
48555;BME280;34336;48.270;16.716;2023-03-01T05:14:05;109325.25;;;18.16;76.78
48555;BME280;34336;48.270;16.716;2023-03-01T05:16:32;109325.25;;;18.16;77.74
48555;BME280;34336;48.270;16.716;2023-03-01T05:19:02;109325.25;;;18.16;77.85
48555;BME280;34336;48.270;16.716;2023-03-01T05:21:38;109325.25;;;18.16;77.61
48555;BME280;34336;48.270;16.716;2023-03-01T05:24:28;109325.25;;;18.16;77.58
48555;BME280;34336;48.270;16.716;2023-03-01T05:26:55;109325.25;;;18.16;77.58
48555;BME280;34336;48.270;16.716;2023-03-01T05:29:21;109325.25;;;18.16;77.77
48555;BME280;34336;48.270;16.716;2023-03-01T05:34:24;109325.25;;;18.16;78.18
48555;BME280;34336;48.270;16.716;2023-03-01T05:36:52;109325.25;;;18.16;78.43
48555;BME280;34336;48.270;16.716;2023-03-01T05:39:20;109325.25;;;18.16;77.87
48555;BME280;34336;48.270;16.716;2023-03-01T05:41:48;109325.25;;;18.16;78.48
48555;BME280;34336;48.270;16.716;2023-03-01T05:44:14;109325.25;;;18.16;78.51
48555;BME280;34336;48.270;16.716;2023-03-01T05:46:42;109325.25;;;18.16;78.78
48555;BME280;34336;48.270;16.716;2023-03-01T05:49:08;109325.25;;;18.16;79.44
48555;BME280;34336;48.270;16.716;2023-03-01T05:51:35;109325.25;;;18.16;79.23
48555;BME280;34336;48.270;16.716;2023-03-01T05:54:01;109325.25;;;18.16;79.38
48555;BME280;34336;48.270;16.716;2023-03-01T05:56:28;109325.25;;;18.16;78.81
48555;BME280;34336;48.270;16.716;2023-03-01T05:58:55;109325.25;;;18.16;78.61
48555;BME280;34336;48.270;16.716;2023-03-01T06:01:22;109325.25;;;18.16;78.63
48555;BME280;34336;48.270;16.716;2023-03-01T06:03:48;109325.25;;;18.16;78.08
48555;BME280;34336;48.270;16.716;2023-03-01T06:06:15;109325.25;;;18.16;78.01
48555;BME280;34336;48.270;16.716;2023-03-01T06:08:42;109325.25;;;18.16;77.64
48555;BME280;34336;48.270;16.716;2023-03-01T06:11:08;109325.25;;;18.16;77.78
48555;BME280;34336;48.270;16.716;2023-03-01T06:13:35;109325.25;;;18.16;77.34
48555;BME280;34336;48.270;16.716;2023-03-01T06:16:04;109325.25;;;18.16;77.42
48555;BME280;34336;48.270;16.716;2023-03-01T06:18:30;109325.25;;;18.16;77.64
48555;BME280;34336;48.270;16.716;2023-03-01T06:20:57;109325.25;;;18.16;77.00
48555;BME280;34336;48.270;16.716;2023-03-01T06:23:23;109325.25;;;18.16;77.01
48555;BME280;34336;48.270;16.716;2023-03-01T06:25:50;109325.25;;;18.16;76.60
48555;BME280;34336;48.270;16.716;2023-03-01T06:28:17;109325.25;;;18.16;76.41
48555;BME280;34336;48.270;16.716;2023-03-01T06:30:43;109325.25;;;18.16;75.88
48555;BME280;34336;48.270;16.716;2023-03-01T06:33:10;109325.25;;;18.16;76.18
48555;BME280;34336;48.270;16.716;2023-03-01T06:35:36;109325.25;;;18.16;75.39
48555;BME280;34336;48.270;16.716;2023-03-01T06:38:03;109325.25;;;18.16;75.94
48555;BME280;34336;48.270;16.716;2023-03-01T06:40:31;109325.25;;;18.16;75.81
48555;BME280;34336;48.270;16.716;2023-03-01T06:42:57;109325.25;;;18.16;75.75
48555;BME280;34336;48.270;16.716;2023-03-01T06:45:24;109325.25;;;18.16;75.42
48555;BME280;34336;48.270;16.716;2023-03-01T06:47:50;109325.25;;;18.16;75.58
48555;BME280;34336;48.270;16.716;2023-03-01T06:50:17;109325.25;;;18.16;75.20
48555;BME280;34336;48.270;16.716;2023-03-01T06:52:44;109325.25;;;18.16;74.92
48555;BME280;34336;48.270;16.716;2023-03-01T06:55:11;109325.25;;;18.16;75.44
48555;BME280;34336;48.270;16.716;2023-03-01T06:57:38;109325.25;;;18.16;75.37
48555;BME280;34336;48.270;16.716;2023-03-01T07:00:05;109325.25;;;18.16;74.92
48555;BME280;34336;48.270;16.716;2023-03-01T07:02:33;109325.25;;;18.16;74.86
48555;BME280;34336;48.270;16.716;2023-03-01T07:04:59;109325.25;;;18.16;74.53
48555;BME280;34336;48.270;16.716;2023-03-01T07:07:27;109325.25;;;18.16;73.86
48555;BME280;34336;48.270;16.716;2023-03-01T07:09:53;109325.25;;;18.16;73.78
48555;BME280;34336;48.270;16.716;2023-03-01T07:12:20;109325.25;;;18.16;73.49
48555;BME280;34336;48.270;16.716;2023-03-01T07:14:47;109325.25;;;18.16;73.65
48555;BME280;34336;48.270;16.716;2023-03-01T07:17:13;109325.25;;;18.16;73.01
48555;BME280;34336;48.270;16.716;2023-03-01T07:19:40;109325.25;;;18.16;73.31
48555;BME280;34336;48.270;16.716;2023-03-01T07:22:07;109325.25;;;18.16;72.14
48555;BME280;34336;48.270;16.716;2023-03-01T07:24:36;109325.25;;;18.16;72.27
48555;BME280;34336;48.270;16.716;2023-03-01T07:27:02;109325.25;;;18.16;71.81
48555;BME280;34336;48.270;16.716;2023-03-01T07:29:29;109325.25;;;18.16;71.96
48555;BME280;34336;48.270;16.716;2023-03-01T07:31:56;109325.25;;;18.16;71.42
48555;BME280;34336;48.270;16.716;2023-03-01T07:34:23;109325.25;;;18.16;70.86
48555;BME280;34336;48.270;16.716;2023-03-01T07:36:49;109325.25;;;18.16;71.30
48555;BME280;34336;48.270;16.716;2023-03-01T07:39:16;109325.25;;;18.16;71.43
48555;BME280;34336;48.270;16.716;2023-03-01T07:41:44;109325.25;;;18.16;70.93
48555;BME280;34336;48.270;16.716;2023-03-01T07:44:11;109325.25;;;18.16;70.06
48555;BME280;34336;48.270;16.716;2023-03-01T07:46:38;109325.25;;;18.16;68.90
48555;BME280;34336;48.270;16.716;2023-03-01T07:49:04;109325.25;;;18.16;68.92
48555;BME280;34336;48.270;16.716;2023-03-01T07:51:31;109325.25;;;18.16;69.61
48555;BME280;34336;48.270;16.716;2023-03-01T07:53:58;109325.25;;;18.16;68.56
48555;BME280;34336;48.270;16.716;2023-03-01T07:56:25;109325.25;;;18.16;69.58
48555;BME280;34336;48.270;16.716;2023-03-01T07:58:51;109325.25;;;18.16;66.86
48555;BME280;34336;48.270;16.716;2023-03-01T08:01:19;109325.25;;;18.16;64.79
48555;BME280;34336;48.270;16.716;2023-03-01T08:03:46;109325.25;;;18.16;64.77
48555;BME280;34336;48.270;16.716;2023-03-01T08:06:13;109325.25;;;18.16;63.53
48555;BME280;34336;48.270;16.716;2023-03-01T08:08:40;109325.25;;;18.16;62.77
48555;BME280;34336;48.270;16.716;2023-03-01T08:11:07;109325.25;;;18.16;61.43
48555;BME280;34336;48.270;16.716;2023-03-01T08:13:34;109325.25;;;18.16;60.76
48555;BME280;34336;48.270;16.716;2023-03-01T08:16:05;109325.25;;;18.16;59.65
48555;BME280;34336;48.270;16.716;2023-03-01T08:18:32;109325.25;;;18.16;55.85
48555;BME280;34336;48.270;16.716;2023-03-01T08:21:05;109325.25;;;18.16;56.77
48555;BME280;34336;48.270;16.716;2023-03-01T08:23:32;109325.25;;;18.16;57.69
48555;BME280;34336;48.270;16.716;2023-03-01T08:26:03;109325.25;;;18.16;57.16
48555;BME280;34336;48.270;16.716;2023-03-01T08:28:30;109325.25;;;18.16;58.50
48555;BME280;34336;48.270;16.716;2023-03-01T08:30:56;109325.25;;;18.16;60.16
48555;BME280;34336;48.270;16.716;2023-03-01T08:33:23;109325.25;;;18.16;58.03
48555;BME280;34336;48.270;16.716;2023-03-01T08:35:50;109325.25;;;18.16;57.72
48555;BME280;34336;48.270;16.716;2023-03-01T08:38:17;109325.25;;;18.16;57.55
48555;BME280;34336;48.270;16.716;2023-03-01T08:40:43;109325.25;;;18.16;57.76
48555;BME280;34336;48.270;16.716;2023-03-01T08:43:10;109325.25;;;18.16;57.49
48555;BME280;34336;48.270;16.716;2023-03-01T08:45:36;109325.25;;;18.16;58.40
48555;BME280;34336;48.270;16.716;2023-03-01T08:48:03;109325.25;;;18.16;57.44
48555;BME280;34336;48.270;16.716;2023-03-01T08:50:29;109325.25;;;18.16;56.82
48555;BME280;34336;48.270;16.716;2023-03-01T08:52:56;109325.25;;;18.16;56.72
48555;BME280;34336;48.270;16.716;2023-03-01T08:55:22;109325.25;;;18.16;55.56
48555;BME280;34336;48.270;16.716;2023-03-01T08:57:49;109325.25;;;18.16;55.37
48555;BME280;34336;48.270;16.716;2023-03-01T09:00:16;109325.25;;;18.16;55.23
48555;BME280;34336;48.270;16.716;2023-03-01T09:02:43;109325.25;;;18.16;55.79
48555;BME280;34336;48.270;16.716;2023-03-01T09:05:10;109325.25;;;18.16;56.17
48555;BME280;34336;48.270;16.716;2023-03-01T09:07:36;109325.25;;;18.16;56.19
48555;BME280;34336;48.270;16.716;2023-03-01T09:10:03;109325.25;;;18.16;57.13
48555;BME280;34336;48.270;16.716;2023-03-01T09:12:30;109325.25;;;18.16;56.91
48555;BME280;34336;48.270;16.716;2023-03-01T09:14:56;109325.25;;;18.16;57.04
48555;BME280;34336;48.270;16.716;2023-03-01T09:17:23;109325.25;;;18.16;57.14
48555;BME280;34336;48.270;16.716;2023-03-01T09:19:49;109325.25;;;18.16;56.46
48555;BME280;34336;48.270;16.716;2023-03-01T09:22:16;109325.25;;;18.16;56.63
48555;BME280;34336;48.270;16.716;2023-03-01T09:24:43;109325.25;;;18.16;56.13
48555;BME280;34336;48.270;16.716;2023-03-01T09:27:10;109325.25;;;18.16;57.08
48555;BME280;34336;48.270;16.716;2023-03-01T09:29:37;109325.25;;;18.16;56.34
48555;BME280;34336;48.270;16.716;2023-03-01T09:32:03;109325.25;;;18.16;56.19
48555;BME280;34336;48.270;16.716;2023-03-01T09:34:30;109325.25;;;18.16;56.88
48555;BME280;34336;48.270;16.716;2023-03-01T09:36:57;109325.25;;;18.16;55.11
48555;BME280;34336;48.270;16.716;2023-03-01T09:39:23;109325.25;;;18.16;55.77
48555;BME280;34336;48.270;16.716;2023-03-01T09:42:00;109325.25;;;18.16;54.99
48555;BME280;34336;48.270;16.716;2023-03-01T09:44:32;109325.25;;;18.16;54.05
48555;BME280;34336;48.270;16.716;2023-03-01T09:47:03;109325.25;;;18.16;54.54
48555;BME280;34336;48.270;16.716;2023-03-01T09:49:30;109325.25;;;18.16;54.07
48555;BME280;34336;48.270;16.716;2023-03-01T09:52:09;109325.25;;;18.16;53.91
48555;BME280;34336;48.270;16.716;2023-03-01T09:54:38;109325.25;;;18.16;53.84
48555;BME280;34336;48.270;16.716;2023-03-01T09:57:06;109325.25;;;18.16;53.52
48555;BME280;34336;48.270;16.716;2023-03-01T10:02:27;109325.25;;;18.16;51.37
48555;BME280;34336;48.270;16.716;2023-03-01T10:05:02;109325.25;;;18.16;52.63
48555;BME280;34336;48.270;16.716;2023-03-01T10:10:01;109325.25;;;18.16;52.30
48555;BME280;34336;48.270;16.716;2023-03-01T10:12:33;109325.25;;;18.16;50.69
48555;BME280;34336;48.270;16.716;2023-03-01T10:15:08;109325.25;;;18.16;50.69
48555;BME280;34336;48.270;16.716;2023-03-01T10:17:52;109325.25;;;18.16;50.24
48555;BME280;34336;48.270;16.716;2023-03-01T10:20:23;109325.25;;;18.16;49.35
48555;BME280;34336;48.270;16.716;2023-03-01T10:22:50;109325.25;;;18.16;51.62
48555;BME280;34336;48.270;16.716;2023-03-01T10:25:43;109325.25;;;18.16;49.41
48555;BME280;34336;48.270;16.716;2023-03-01T10:28:16;109325.25;;;18.16;48.53
48555;BME280;34336;48.270;16.716;2023-03-01T10:30:43;109325.25;;;18.16;49.30
48555;BME280;34336;48.270;16.716;2023-03-01T10:33:20;109325.25;;;18.16;51.11
48555;BME280;34336;48.270;16.716;2023-03-01T10:35:48;109325.25;;;18.16;49.75
48555;BME280;34336;48.270;16.716;2023-03-01T10:38:15;109325.25;;;18.16;48.06
48555;BME280;34336;48.270;16.716;2023-03-01T10:40:55;109325.25;;;18.16;46.13
48555;BME280;34336;48.270;16.716;2023-03-01T10:43:25;109325.25;;;18.16;47.68
48555;BME280;34336;48.270;16.716;2023-03-01T10:45:53;109325.25;;;18.16;47.45
48555;BME280;34336;48.270;16.716;2023-03-01T10:48:21;109325.25;;;18.16;47.27
48555;BME280;34336;48.270;16.716;2023-03-01T10:50:57;109325.25;;;18.16;47.08
48555;BME280;34336;48.270;16.716;2023-03-01T10:53:35;109325.25;;;18.16;49.85
48555;BME280;34336;48.270;16.716;2023-03-01T10:56:05;109325.25;;;18.16;49.94
48555;BME280;34336;48.270;16.716;2023-03-01T10:58:33;109325.25;;;18.16;48.77
48555;BME280;34336;48.270;16.716;2023-03-01T11:01:04;109325.25;;;18.16;49.98
48555;BME280;34336;48.270;16.716;2023-03-01T11:03:35;109325.25;;;18.16;47.89
48555;BME280;34336;48.270;16.716;2023-03-01T11:06:19;109325.25;;;18.16;50.15
48555;BME280;34336;48.270;16.716;2023-03-01T11:08:50;109325.25;;;18.16;50.03
48555;BME280;34336;48.270;16.716;2023-03-01T11:11:19;109325.25;;;18.16;48.77
48555;BME280;34336;48.270;16.716;2023-03-01T11:13:53;109325.25;;;18.16;48.19
48555;BME280;34336;48.270;16.716;2023-03-01T11:16:24;109325.25;;;18.16;48.33
48555;BME280;34336;48.270;16.716;2023-03-01T11:19:13;109325.25;;;18.16;48.49
48555;BME280;34336;48.270;16.716;2023-03-01T11:21:47;109325.25;;;18.16;47.03
48555;BME280;34336;48.270;16.716;2023-03-01T11:24:16;109325.25;;;18.16;48.93
48555;BME280;34336;48.270;16.716;2023-03-01T11:26:47;109325.25;;;18.16;47.42
48555;BME280;34336;48.270;16.716;2023-03-01T11:29:27;109325.25;;;18.16;47.68
48555;BME280;34336;48.270;16.716;2023-03-01T11:32:06;109325.25;;;18.16;46.51
48555;BME280;34336;48.270;16.716;2023-03-01T11:34:42;109325.25;;;18.16;48.17
48555;BME280;34336;48.270;16.716;2023-03-01T11:39:57;109325.25;;;18.16;48.29
48555;BME280;34336;48.270;16.716;2023-03-01T11:42:47;109325.25;;;18.16;49.29
48555;BME280;34336;48.270;16.716;2023-03-01T11:45:11;109325.25;;;18.16;47.47
48555;BME280;34336;48.270;16.716;2023-03-01T11:50:15;109325.25;;;18.16;46.82
48555;BME280;34336;48.270;16.716;2023-03-01T11:52:48;109325.25;;;18.16;45.90
48555;BME280;34336;48.270;16.716;2023-03-01T12:08:52;109325.25;;;18.16;46.96
48555;BME280;34336;48.270;16.716;2023-03-01T12:21:28;109325.25;;;18.16;48.56
48555;BME280;34336;48.270;16.716;2023-03-01T12:29:33;109325.25;;;18.16;47.08
48555;BME280;34336;48.270;16.716;2023-03-01T12:34:49;109325.25;;;18.16;45.76
48555;BME280;34336;48.270;16.716;2023-03-01T12:37:37;109325.25;;;18.16;47.30
48555;BME280;34336;48.270;16.716;2023-03-01T12:50:21;109325.25;;;18.16;46.55
48555;BME280;34336;48.270;16.716;2023-03-01T12:52:56;109325.25;;;18.16;45.70
48555;BME280;34336;48.270;16.716;2023-03-01T12:55:36;109325.25;;;18.16;47.21
48555;BME280;34336;48.270;16.716;2023-03-01T13:01:13;109325.25;;;18.16;46.94
48555;BME280;34336;48.270;16.716;2023-03-01T13:06:19;109325.25;;;18.16;46.56
48555;BME280;34336;48.270;16.716;2023-03-01T13:08:55;109325.25;;;18.16;47.13
48555;BME280;34336;48.270;16.716;2023-03-01T13:11:24;109325.25;;;18.16;45.44
48555;BME280;34336;48.270;16.716;2023-03-01T13:13:51;109325.25;;;18.16;45.10
48555;BME280;34336;48.270;16.716;2023-03-01T13:21:44;109325.25;;;18.16;47.27
48555;BME280;34336;48.270;16.716;2023-03-01T13:29:48;109325.25;;;18.16;46.52
48555;BME280;34336;48.270;16.716;2023-03-01T13:32:28;109325.25;;;18.16;46.77
48555;BME280;34336;48.270;16.716;2023-03-01T13:37:36;109325.25;;;18.16;48.77
48555;BME280;34336;48.270;16.716;2023-03-01T13:42:48;109325.25;;;18.16;47.61
48555;BME280;34336;48.270;16.716;2023-03-01T13:48:00;109325.25;;;18.16;47.08
48555;BME280;34336;48.270;16.716;2023-03-01T13:50:28;109325.25;;;18.16;46.01
48555;BME280;34336;48.270;16.716;2023-03-01T13:52:57;109325.25;;;18.16;47.05
48555;BME280;34336;48.270;16.716;2023-03-01T13:57:58;109325.25;;;18.16;46.21
48555;BME280;34336;48.270;16.716;2023-03-01T14:00:27;109325.25;;;18.16;47.97
48555;BME280;34336;48.270;16.716;2023-03-01T14:03:01;109325.25;;;18.16;48.45
48555;BME280;34336;48.270;16.716;2023-03-01T14:05:32;109325.25;;;18.16;46.82
48555;BME280;34336;48.270;16.716;2023-03-01T14:07:59;109325.25;;;18.16;46.93
48555;BME280;34336;48.270;16.716;2023-03-01T14:10:27;109325.25;;;18.16;46.96
48555;BME280;34336;48.270;16.716;2023-03-01T14:13:09;109325.25;;;18.16;48.29
48555;BME280;34336;48.270;16.716;2023-03-01T14:15:42;109325.25;;;18.16;47.82